Time;durP1;ratioP1;P1;durP2;ratioP2;P2;SDS_P1;SDS_P2;PMS_P1;PMS_P2;Temp;Humidity;BMP_temperature;BMP_pressure;BME280_temperature;BME280_humidity;BME280_pressure;Samples;Min_cycle;Max_cycle;Signal;HPM_P1;HPM_P2
2022/03/07 00:01:55;;;;;;;5.53;1.10;;;0.60;99.90;;;;;;5046269;28;20568;-85
2022/03/07 00:04:20;;;;;;;2.05;0.90;;;0.60;99.90;;;;;;5062244;28;20041;-85
2022/03/07 00:06:47;;;;;;;7.25;1.73;;;0.50;99.90;;;;;;5046120;28;20048;-85
2022/03/07 00:09:13;;;;;;;5.00;1.15;;;0.40;99.90;;;;;;5046973;28;20404;-85
2022/03/07 00:11:40;;;;;;;4.55;1.25;;;0.40;99.90;;;;;;5045992;28;20434;-85
2022/03/07 00:14:06;;;;;;;3.63;1.30;;;0.30;99.90;;;;;;5046345;28;20048;-86
2022/03/07 00:16:32;;;;;;;4.53;1.35;;;0.30;99.90;;;;;;5045042;28;20040;-85
2022/03/07 00:18:58;;;;;;;2.33;1.20;;;0.20;99.90;;;;;;5062957;28;20040;-85
2022/03/07 00:21:24;;;;;;;2.58;1.23;;;0.20;99.90;;;;;;5045900;28;20048;-85
2022/03/07 00:23:50;;;;;;;5.57;1.55;;;0.20;99.90;;;;;;5045926;28;20044;-85
2022/03/07 00:26:19;;;;;;;5.20;1.42;;;1.50;99.90;;;;;;5062834;28;20040;-85
2022/03/07 00:28:46;;;;;;;6.95;1.23;;;0.10;99.90;;;;;;5028668;28;20106;-86
2022/03/07 00:31:12;;;;;;;3.38;1.48;;;0.00;99.90;;;;;;5063108;28;20553;-85
2022/03/07 00:33:38;;;;;;;3.22;1.25;;;0.00;99.90;;;;;;5061586;28;20044;-86
2022/03/07 00:36:05;;;;;;;5.57;2.53;;;1.60;99.90;;;;;;5046582;28;20059;-86
2022/03/07 00:38:31;;;;;;;4.07;2.00;;;0.00;99.90;;;;;;5029036;28;20048;-86
2022/03/07 00:40:57;;;;;;;7.65;2.15;;;0.00;99.90;;;;;;5030271;28;20076;-86
2022/03/07 00:43:23;;;;;;;3.10;1.73;;;-0.10;99.90;;;;;;5046736;28;20048;-86
2022/03/07 00:45:50;;;;;;;5.82;1.95;;;-0.10;99.90;;;;;;5045593;28;20586;-86
2022/03/07 00:48:16;;;;;;;5.35;2.63;;;-0.10;99.90;;;;;;5046538;28;20456;-85
2022/03/07 00:50:47;;;;;;;3.28;1.90;;;-0.20;99.90;;;;;;5046038;28;20467;-85
2022/03/07 00:53:16;;;;;;;4.90;1.88;;;-0.30;99.90;;;;;;5063339;28;20127;-86
2022/03/07 00:55:43;;;;;;;6.93;1.30;;;-0.30;99.90;;;;;;5062684;28;20052;-86
2022/03/07 00:58:09;;;;;;;3.92;1.63;;;-0.20;99.90;;;;;;5063732;28;20426;-86
2022/03/07 01:00:36;;;;;;;7.75;1.45;;;-0.20;99.90;;;;;;5030917;28;20127;-85
2022/03/07 01:03:03;;;;;;;2.65;1.38;;;-0.20;99.90;;;;;;5063753;28;20418;-87
2022/03/07 01:05:29;;;;;;;2.67;1.25;;;-0.20;99.90;;;;;;5049268;28;20044;-87
2022/03/07 01:07:54;;;;;;;2.50;1.20;;;-0.20;99.90;;;;;;5034055;28;20066;-87
2022/03/07 01:10:20;;;;;;;6.03;1.40;;;-0.30;99.90;;;;;;5051585;28;20072;-87
2022/03/07 01:12:46;;;;;;;4.05;1.38;;;-0.30;99.90;;;;;;5018620;28;20074;-87
2022/03/07 01:15:12;;;;;;;1.05;0.95;;;-0.30;99.90;;;;;;5031264;28;20044;-87
2022/03/07 01:17:38;;;;;;;2.78;1.35;;;-0.40;99.90;;;;;;5062774;28;20176;-87
2022/03/07 01:20:05;;;;;;;2.20;1.30;;;1.20;99.90;;;;;;5020749;28;20104;-87
2022/03/07 01:22:31;;;;;;;8.57;1.35;;;-0.40;99.90;;;;;;5067268;28;20555;-87
2022/03/07 01:24:58;;;;;;;2.63;1.33;;;-0.40;99.90;;;;;;5064742;28;20063;-86
2022/03/07 01:27:23;;;;;;;4.03;1.20;;;-0.40;99.90;;;;;;5049304;28;20090;-87
2022/03/07 01:29:49;;;;;;;3.70;1.25;;;-0.50;99.90;;;;;;5031829;28;20127;-87
2022/03/07 01:32:15;;;;;;;4.55;1.15;;;-0.50;99.90;;;;;;5065549;28;20045;-87
2022/03/07 01:34:41;;;;;;;1.20;0.90;;;-0.50;99.90;;;;;;5049326;28;20040;-87
2022/03/07 01:37:06;;;;;;;3.97;1.67;;;-0.50;99.90;;;;;;5048100;28;20044;-88
2022/03/07 01:39:32;;;;;;;3.92;1.20;;;0.70;99.90;;;;;;5049343;28;20044;-88
2022/03/07 01:41:58;;;;;;;7.47;1.30;;;-0.60;99.90;;;;;;5031150;28;20049;-87
2022/03/07 01:44:27;;;;;;;2.38;1.33;;;-0.60;99.90;;;;;;5065598;28;20139;-87
2022/03/07 01:46:53;;;;;;;3.35;1.65;;;-0.70;99.90;;;;;;5065642;28;20044;-87
2022/03/07 01:49:19;;;;;;;2.40;1.35;;;-0.70;99.90;;;;;;5065369;28;20500;-87
2022/03/07 01:51:47;;;;;;;4.15;1.30;;;-0.70;99.90;;;;;;5066367;28;20045;-87
2022/03/07 01:54:15;;;;;;;2.88;0.98;;;-0.70;99.90;;;;;;5031699;28;20053;-87
2022/03/07 01:56:45;;;;;;;3.10;1.23;;;-0.80;99.90;;;;;;5065711;28;20047;-87
2022/03/07 01:59:16;;;;;;;5.55;1.13;;;-0.80;99.90;;;;;;5047388;28;20036;-88
2022/03/07 02:01:43;;;;;;;2.53;1.23;;;-0.80;99.90;;;;;;5048709;28;20044;-87
2022/03/07 02:04:10;;;;;;;4.10;1.67;;;-0.80;99.90;;;;;;5032225;28;20464;-88
2022/03/07 02:06:37;;;;;;;4.75;1.92;;;-0.90;99.90;;;;;;5032411;28;20686;-88
2022/03/07 02:09:03;;;;;;;6.38;1.40;;;-0.90;99.90;;;;;;5049049;28;20040;-88
2022/03/07 02:11:29;;;;;;;5.35;1.30;;;0.40;99.90;;;;;;5014613;28;20073;-88
2022/03/07 02:13:54;;;;;;;2.15;1.13;;;-0.90;99.90;;;;;;5032268;28;20123;-88
2022/03/07 02:16:20;;;;;;;8.70;1.75;;;-0.90;99.90;;;;;;5014482;28;20044;-86
2022/03/07 02:18:47;;;;;;;4.35;1.55;;;-0.90;99.90;;;;;;5031707;28;20037;-86
2022/03/07 02:21:15;;;;;;;3.17;1.50;;;-1.00;99.90;;;;;;5047724;28;20530;-87
2022/03/07 02:23:42;;;;;;;4.10;1.40;;;-1.00;99.90;;;;;;5064340;28;20097;-87
2022/03/07 02:26:14;;;;;;;2.70;1.20;;;-0.90;99.90;;;;;;5065208;28;20056;-87
2022/03/07 02:28:42;;;;;;;4.30;1.33;;;-0.90;99.90;;;;;;5047552;28;20040;-87
2022/03/07 02:31:09;;;;;;;3.20;1.50;;;-0.90;99.90;;;;;;5064803;28;20048;-87
2022/03/07 02:33:34;;;;;;;3.10;1.48;;;-0.90;99.90;;;;;;5030276;28;20044;-87
2022/03/07 02:36:01;;;;;;;4.30;1.23;;;-1.00;99.90;;;;;;5031237;28;20048;-86
2022/03/07 02:38:26;;;;;;;5.40;1.55;;;-1.00;99.90;;;;;;5047877;28;20115;-86
2022/03/07 02:40:52;;;;;;;3.00;1.50;;;-1.00;99.90;;;;;;5064004;28;20207;-86
2022/03/07 02:43:18;;;;;;;2.92;1.70;;;-1.00;99.90;;;;;;5048655;28;20048;-86
2022/03/07 02:45:45;;;;;;;3.83;1.67;;;-1.00;99.90;;;;;;5063919;28;20404;-86
2022/03/07 02:48:11;;;;;;;2.78;1.27;;;-1.00;99.90;;;;;;5047755;28;20041;-87
2022/03/07 02:50:37;;;;;;;2.58;1.13;;;-1.10;99.90;;;;;;5063639;28;20132;-88
2022/03/07 02:53:03;;;;;;;3.65;1.73;;;-0.90;99.90;;;;;;5031224;28;20040;-88
2022/03/07 02:55:30;;;;;;;3.30;1.38;;;-1.20;99.90;;;;;;5063986;28;20052;-88
2022/03/07 02:57:56;;;;;;;3.95;1.40;;;-1.20;99.90;;;;;;5030686;28;20044;-88
2022/03/07 03:00:22;;;;;;;7.25;1.70;;;-1.20;99.90;;;;;;5048713;28;20075;-88
2022/03/07 03:02:48;;;;;;;3.60;2.08;;;-1.20;99.90;;;;;;5063381;28;20087;-88
2022/03/07 03:05:13;;;;;;;1.85;1.40;;;-1.30;99.90;;;;;;5047664;28;20098;-88
2022/03/07 03:07:39;;;;;;;2.55;1.05;;;-1.30;99.90;;;;;;5030210;28;20080;-88
2022/03/07 03:10:06;;;;;;;5.10;2.15;;;-1.30;99.90;;;;;;5031480;28;20110;-88
2022/03/07 03:12:31;;;;;;;2.63;1.25;;;-1.30;99.90;;;;;;5047217;28;20467;-88
2022/03/07 03:14:57;;;;;;;2.83;1.45;;;-1.20;99.90;;;;;;5047021;28;20094;-87
2022/03/07 03:17:24;;;;;;;2.08;1.30;;;0.00;99.90;;;;;;5032069;28;20044;-88
2022/03/07 03:19:50;;;;;;;3.53;1.90;;;-1.30;99.90;;;;;;5046476;28;20040;-89
2022/03/07 03:22:16;;;;;;;7.47;1.67;;;-1.20;99.90;;;;;;5048123;28;20036;-88
2022/03/07 03:24:42;;;;;;;4.28;1.70;;;-1.20;99.90;;;;;;5063250;28;20044;-87
2022/03/07 03:27:07;;;;;;;3.38;1.30;;;-1.20;99.90;;;;;;5014979;28;20107;-88
2022/03/07 03:29:33;;;;;;;3.00;1.50;;;-0.20;99.90;;;;;;5031388;28;20041;-88
2022/03/07 03:31:59;;;;;;;3.58;1.33;;;-1.30;99.90;;;;;;5031698;28;20480;-88
2022/03/07 03:34:25;;;;;;;4.07;1.48;;;-1.30;99.90;;;;;;5048847;28;20048;-87
2022/03/07 03:36:51;;;;;;;9.23;1.70;;;-1.30;99.90;;;;;;5034693;28;20076;-88
2022/03/07 03:39:17;;;;;;;2.30;1.58;;;-0.70;99.90;;;;;;5038201;28;20180;-88
2022/03/07 03:41:43;;;;;;;4.43;1.60;;;-1.30;99.90;;;;;;5059425;28;20052;-88
2022/03/07 03:44:10;;;;;;;3.33;1.52;;;-1.30;99.90;;;;;;5063721;28;20051;-88
2022/03/07 03:46:37;;;;;;;4.75;1.40;;;-1.30;99.90;;;;;;5067859;28;20045;-88
2022/03/07 03:49:03;;;;;;;7.65;1.70;;;-1.30;99.90;;;;;;5031424;28;20118;-88
2022/03/07 03:51:29;;;;;;;5.57;2.00;;;-1.30;99.90;;;;;;5030689;28;20036;-88
2022/03/07 03:53:55;;;;;;;3.38;1.48;;;-1.30;99.90;;;;;;5029315;28;20082;-88
2022/03/07 03:56:21;;;;;;;5.32;1.52;;;-1.40;99.90;;;;;;5047099;28;20048;-88
2022/03/07 03:58:47;;;;;;;6.43;1.65;;;-1.30;99.90;;;;;;5045625;28;20135;-88
2022/03/07 04:01:12;;;;;;;4.90;1.45;;;-1.40;99.90;;;;;;5030058;28;20050;-88
2022/03/07 04:03:39;;;;;;;2.58;1.40;;;-1.00;99.90;;;;;;5029942;28;20036;-87
2022/03/07 04:06:06;;;;;;;5.50;1.88;;;-1.40;99.90;;;;;;5029969;28;20116;-87
2022/03/07 04:08:40;;;;;;;4.13;2.00;;;-1.50;99.90;;;;;;5014607;28;20060;-87
2022/03/07 04:11:06;;;;;;;3.50;1.90;;;-1.40;99.90;;;;;;5029154;28;20048;-87
2022/03/07 04:13:32;;;;;;;5.30;2.10;;;-1.40;99.90;;;;;;5046788;28;20089;-86
2022/03/07 04:15:58;;;;;;;4.40;1.80;;;-1.30;99.90;;;;;;5028952;28;20427;-86
2022/03/07 04:18:23;;;;;;;4.50;1.70;;;-1.30;99.90;;;;;;5029772;28;20127;-87
2022/03/07 04:20:49;;;;;;;6.20;1.60;;;-1.30;99.90;;;;;;5045903;28;20044;-88
2022/03/07 04:23:20;;;;;;;5.90;2.20;;;-1.40;99.90;;;;;;5046428;28;20049;-87
2022/03/07 04:25:48;;;;;;;3.80;2.17;;;-1.40;99.90;;;;;;5048194;28;20098;-88
2022/03/07 04:28:14;;;;;;;3.22;1.15;;;-1.40;99.90;;;;;;5029713;28;20040;-88
2022/03/07 04:30:40;;;;;;;3.20;1.52;;;-1.50;99.90;;;;;;5046741;28;20076;-88
2022/03/07 04:33:08;;;;;;;3.65;1.85;;;-1.50;99.90;;;;;;5045319;28;20075;-89
2022/03/07 04:35:33;;;;;;;7.25;1.55;;;-1.30;99.90;;;;;;5047075;28;20052;-88
2022/03/07 04:38:00;;;;;;;2.88;1.92;;;-1.50;99.90;;;;;;5029989;28;20044;-87
2022/03/07 04:40:26;;;;;;;5.70;2.13;;;-1.50;99.90;;;;;;5047017;28;20516;-87
2022/03/07 04:42:52;;;;;;;2.42;1.67;;;-1.50;99.90;;;;;;5050153;28;20131;-88
2022/03/07 04:45:18;;;;;;;4.15;1.70;;;-1.50;99.90;;;;;;5017013;28;20376;-87
2022/03/07 04:47:44;;;;;;;2.42;1.85;;;-1.60;99.90;;;;;;5050331;28;20048;-89
2022/03/07 04:50:12;;;;;;;2.88;1.60;;;-1.60;99.90;;;;;;5065854;28;20395;-88
2022/03/07 04:52:39;;;;;;;4.65;1.98;;;-1.70;99.90;;;;;;5033745;28;20044;-89
2022/03/07 04:55:05;;;;;;;4.10;2.15;;;-1.70;99.90;;;;;;5049791;28;20044;-89
2022/03/07 04:57:31;;;;;;;2.58;2.03;;;-1.80;99.90;;;;;;5066658;28;20115;-88
2022/03/07 04:59:57;;;;;;;3.58;1.80;;;-1.80;99.90;;;;;;5034071;28;20579;-87
2022/03/07 05:02:23;;;;;;;3.45;1.45;;;-1.80;99.90;;;;;;5065547;28;20290;-86
2022/03/07 05:04:49;;;;;;;4.25;1.77;;;-1.80;99.90;;;;;;5017107;28;20091;-86
2022/03/07 05:07:14;;;;;;;3.97;2.00;;;-1.80;99.90;;;;;;5048247;28;20048;-87
2022/03/07 05:09:40;;;;;;;3.55;1.60;;;-1.70;99.90;;;;;;5016901;28;20047;-87
2022/03/07 05:12:06;;;;;;;7.43;2.13;;;-1.40;99.90;;;;;;5032356;28;20048;-87
2022/03/07 05:14:32;;;;;;;4.53;1.67;;;-1.60;99.90;;;;;;5032341;28;20072;-87
2022/03/07 05:16:58;;;;;;;5.57;1.70;;;-1.60;99.90;;;;;;5033324;28;20133;-88
2022/03/07 05:19:23;;;;;;;2.47;1.60;;;-1.70;99.90;;;;;;5049137;28;20047;-87
2022/03/07 05:21:49;;;;;;;7.95;2.33;;;-1.70;99.90;;;;;;5032647;28;20518;-86
2022/03/07 05:24:15;;;;;;;5.03;2.05;;;-1.80;99.90;;;;;;5064721;28;20466;-86
2022/03/07 05:26:41;;;;;;;2.35;1.73;;;-1.80;99.90;;;;;;5065634;28;20330;-83
2022/03/07 05:29:07;;;;;;;4.47;2.13;;;-1.90;99.90;;;;;;5031781;28;20098;-84
2022/03/07 05:31:32;;;;;;;6.63;2.55;;;-1.90;99.90;;;;;;5048883;28;20068;-85
2022/03/07 05:33:58;;;;;;;4.45;2.17;;;-1.90;99.90;;;;;;5065881;28;20425;-85
2022/03/07 05:36:24;;;;;;;4.88;1.88;;;-1.90;99.90;;;;;;5065044;28;20047;-86
2022/03/07 05:38:50;;;;;;;3.83;1.83;;;-1.90;99.90;;;;;;5049169;28;20076;-84
2022/03/07 05:41:16;;;;;;;3.08;2.10;;;-1.90;99.90;;;;;;5047628;28;20049;-88
2022/03/07 05:43:42;;;;;;;4.32;1.90;;;-1.10;99.90;;;;;;5032139;28;20102;-89
2022/03/07 05:46:07;;;;;;;3.22;1.92;;;-0.70;99.90;;;;;;5047904;28;20128;-88
2022/03/07 05:48:33;;;;;;;7.25;2.17;;;-2.00;99.90;;;;;;5031931;28;20136;-88
2022/03/07 05:50:59;;;;;;;2.38;1.75;;;-2.00;99.90;;;;;;5065546;28;20044;-86
2022/03/07 05:53:25;;;;;;;4.50;2.35;;;-2.00;99.90;;;;;;5064207;28;20098;-86
2022/03/07 05:55:51;;;;;;;5.13;2.10;;;-2.00;99.90;;;;;;5016286;28;20040;-86
2022/03/07 05:58:17;;;;;;;3.80;2.25;;;-2.10;99.90;;;;;;5064921;28;20051;-84
2022/03/07 06:00:44;;;;;;;7.05;2.08;;;-2.10;99.90;;;;;;5049764;28;20485;-86
2022/03/07 06:03:10;;;;;;;8.82;3.08;;;-2.10;99.90;;;;;;5065453;28;20040;-87
2022/03/07 06:05:36;;;;;;;6.63;2.55;;;-2.10;99.90;;;;;;5067105;28;20077;-84
2022/03/07 06:08:03;;;;;;;5.32;2.45;;;-2.10;99.90;;;;;;5066823;28;20049;-83
2022/03/07 06:10:29;;;;;;;6.38;2.45;;;-2.10;99.90;;;;;;5074523;28;20300;-84
2022/03/07 06:12:54;;;;;;;5.55;3.20;;;-2.10;99.90;;;;;;5083449;28;20040;-86
2022/03/07 06:15:20;;;;;;;7.68;3.13;;;-1.50;99.90;;;;;;5068179;28;20048;-85
2022/03/07 06:17:51;;;;;;;5.80;3.53;;;-2.10;99.90;;;;;;5048953;28;20076;-86
2022/03/07 06:20:20;;;;;;;8.20;4.05;;;-2.10;99.90;;;;;;5030740;28;20045;-83
2022/03/07 06:22:46;;;;;;;6.78;3.80;;;-2.10;99.90;;;;;;5064077;28;20127;-85
2022/03/07 06:25:12;;;;;;;6.72;4.32;;;-2.20;99.90;;;;;;5048137;28;20097;-85
2022/03/07 06:27:38;;;;;;;8.15;3.78;;;-0.80;99.90;;;;;;5064333;28;20044;-86
2022/03/07 06:30:04;;;;;;;6.63;3.70;;;-2.10;99.90;;;;;;5048221;28;20396;-84
2022/03/07 06:32:30;;;;;;;5.45;3.45;;;-2.00;99.90;;;;;;5063259;28;20080;-81
2022/03/07 06:34:56;;;;;;;7.15;4.07;;;-2.00;99.90;;;;;;5064062;28;20083;-84
2022/03/07 06:37:23;;;;;;;10.95;4.07;;;-2.00;99.90;;;;;;5063042;28;20544;-85
2022/03/07 06:39:49;;;;;;;9.00;4.40;;;-2.00;99.90;;;;;;5047211;28;20036;-86
2022/03/07 06:42:15;;;;;;;10.00;4.20;;;-2.00;99.90;;;;;;5047860;28;20082;-85
2022/03/07 06:44:40;;;;;;;10.02;4.28;;;-2.00;99.90;;;;;;5063578;28;20431;-85
2022/03/07 06:47:07;;;;;;;7.03;4.20;;;-2.00;99.90;;;;;;5047741;28;20091;-87
2022/03/07 06:49:33;;;;;;;8.40;4.22;;;-1.90;99.90;;;;;;5063127;28;20123;-86
2022/03/07 06:51:59;;;;;;;7.40;3.85;;;-1.90;99.90;;;;;;5047270;28;20513;-85
2022/03/07 06:54:25;;;;;;;10.32;4.40;;;-0.30;99.90;;;;;;5046293;28;20098;-85
2022/03/07 06:56:50;;;;;;;7.95;4.05;;;-0.50;99.90;;;;;;5047039;28;20356;-86
2022/03/07 06:59:16;;;;;;;8.13;4.38;;;-1.60;99.90;;;;;;5015013;28;20062;-85
2022/03/07 07:01:42;;;;;;;6.63;4.45;;;-1.50;99.90;;;;;;5062939;28;20541;-84
2022/03/07 07:04:08;;;;;;;6.95;4.35;;;-1.50;99.90;;;;;;5030665;28;20472;-85
2022/03/07 07:06:33;;;;;;;6.40;4.25;;;-1.60;99.90;;;;;;5046650;28;20161;-84
2022/03/07 07:08:59;;;;;;;9.45;3.92;;;-1.40;99.90;;;;;;5048005;28;20041;-85
2022/03/07 07:11:25;;;;;;;9.32;4.13;;;-1.30;99.90;;;;;;5045661;28;20049;-84
2022/03/07 07:13:51;;;;;;;9.88;4.53;;;-1.30;99.90;;;;;;5030357;28;20032;-87
2022/03/07 07:16:16;;;;;;;9.73;4.03;;;-1.20;99.90;;;;;;5063103;28;20525;-83
2022/03/07 07:18:42;;;;;;;10.07;4.93;;;-1.20;99.90;;;;;;5045583;28;20044;-83
2022/03/07 07:21:08;;;;;;;11.93;4.65;;;-1.10;99.90;;;;;;5047059;28;20519;-84
2022/03/07 07:23:35;;;;;;;8.35;4.82;;;-1.00;99.90;;;;;;5062365;28;20075;-84
2022/03/07 07:26:01;;;;;;;7.03;4.70;;;-0.80;99.90;;;;;;5046909;28;20036;-82
2022/03/07 07:28:26;;;;;;;11.18;4.70;;;0.20;99.90;;;;;;5045946;28;20484;-82
2022/03/07 07:30:52;;;;;;;9.80;4.63;;;-0.60;99.90;;;;;;5047416;28;20082;-82
2022/03/07 07:33:18;;;;;;;11.98;4.00;;;-0.50;99.90;;;;;;5030513;28;20470;-83
2022/03/07 07:35:44;;;;;;;11.32;4.95;;;0.40;99.90;;;;;;5063018;28;20085;-81
2022/03/07 07:38:09;;;;;;;12.07;4.00;;;-0.30;99.90;;;;;;5031101;28;20032;-83
2022/03/07 07:40:35;;;;;;;8.48;4.85;;;-0.20;99.90;;;;;;5045861;28;20048;-81
2022/03/07 07:43:01;;;;;;;6.55;4.10;;;0.00;99.90;;;;;;5046918;28;20078;-82
2022/03/07 07:45:27;;;;;;;9.63;4.53;;;0.10;99.90;;;;;;5063106;28;20495;-82
2022/03/07 07:47:53;;;;;;;6.95;4.00;;;0.30;99.90;;;;;;5047515;28;20043;-84
2022/03/07 07:50:19;;;;;;;12.70;4.07;;;0.50;99.90;;;;;;5047203;28;20628;-84
2022/03/07 07:52:45;;;;;;;13.75;5.35;;;0.70;99.90;;;;;;5063759;28;20506;-83
2022/03/07 07:55:11;;;;;;;9.02;3.63;;;0.80;99.90;;;;;;5046975;28;20056;-84
2022/03/07 07:57:39;;;;;;;8.15;3.08;;;1.00;99.90;;;;;;5029242;28;20043;-82
2022/03/07 08:00:07;;;;;;;6.82;3.40;;;1.10;99.90;;;;;;5046459;28;20045;-83
2022/03/07 08:02:33;;;;;;;5.63;3.15;;;1.30;99.90;;;;;;5045461;28;20040;-81
2022/03/07 08:04:59;;;;;;;7.70;2.88;;;1.50;99.90;;;;;;5030656;28;20051;-80
2022/03/07 08:07:25;;;;;;;11.75;5.28;;;1.70;99.90;;;;;;5063970;28;20048;-80
2022/03/07 08:09:52;;;;;;;9.60;2.50;;;2.90;99.90;;;;;;5045912;28;20404;-78
2022/03/07 08:12:18;;;;;;;5.88;2.50;;;2.10;99.90;;;;;;5047324;28;20049;-76
2022/03/07 08:14:45;;;;;;;3.95;2.30;;;2.30;99.90;;;;;;5062405;28;20091;-78
2022/03/07 08:17:12;;;;;;;8.20;3.00;;;3.20;99.90;;;;;;5067683;28;20032;-78
2022/03/07 08:19:38;;;;;;;5.80;2.60;;;3.20;99.90;;;;;;5033625;28;20131;-78
2022/03/07 08:22:04;;;;;;;9.48;2.35;;;3.30;99.90;;;;;;5069230;28;20079;-80
2022/03/07 08:24:30;;;;;;;6.78;2.58;;;3.70;99.90;;;;;;5067388;28;20510;-79
2022/03/07 08:26:57;;;;;;;6.03;2.28;;;4.00;99.90;;;;;;5051308;28;20123;-79
2022/03/07 08:29:24;;;;;;;7.43;2.47;;;4.70;99.90;;;;;;5068250;28;20080;-79
2022/03/07 08:31:49;;;;;;;5.20;1.92;;;4.70;99.90;;;;;;5067406;28;20045;-78
2022/03/07 08:34:15;;;;;;;5.38;1.30;;;4.90;99.90;;;;;;5051135;28;20096;-79
2022/03/07 08:36:41;;;;;;;2.50;1.30;;;5.10;99.90;;;;;;5066998;28;20135;-78
2022/03/07 08:39:06;;;;;;;8.73;2.05;;;5.20;99.90;;;;;;5051713;28;20040;-79
2022/03/07 08:41:34;;;;;;;2.53;1.38;;;6.20;99.90;;;;;;5067640;28;20495;-78
2022/03/07 08:44:00;;;;;;;3.55;1.20;;;5.30;99.90;;;;;;5067175;28;20053;-78
2022/03/07 08:46:26;;;;;;;1.42;0.88;;;5.30;99.90;;;;;;5068747;28;20056;-78
2022/03/07 08:48:52;;;;;;;8.85;1.15;;;5.40;99.90;;;;;;5067610;28;20052;-78
2022/03/07 08:51:18;;;;;;;2.08;0.98;;;5.50;99.90;;;;;;5069251;28;20093;-78
2022/03/07 08:53:44;;;;;;;2.38;0.75;;;5.60;99.90;;;;;;5068597;28;20119;-79
2022/03/07 08:56:10;;;;;;;6.38;0.93;;;6.50;99.90;;;;;;5066840;28;20045;-79
2022/03/07 08:58:36;;;;;;;4.82;1.20;;;5.90;99.90;;;;;;5049813;28;20578;-79
2022/03/07 09:01:02;;;;;;;4.70;1.13;;;5.90;99.90;;;;;;5049273;28;20130;-78
2022/03/07 09:03:28;;;;;;;2.50;1.02;;;6.00;99.90;;;;;;5067261;28;20052;-76
2022/03/07 09:05:54;;;;;;;3.03;1.13;;;6.10;99.90;;;;;;5032899;28;20033;-76
2022/03/07 09:08:19;;;;;;;5.63;0.75;;;6.10;99.90;;;;;;5066816;28;20495;-76
2022/03/07 09:10:45;;;;;;;7.05;0.80;;;6.10;99.90;;;;;;5049373;28;20071;-76
2022/03/07 09:13:11;;;;;;;4.40;0.77;;;6.20;99.90;;;;;;5067889;28;20052;-75
2022/03/07 09:15:37;;;;;;;4.78;0.80;;;6.30;99.90;;;;;;5065614;28;20037;-76
2022/03/07 09:18:03;;;;;;;2.00;0.65;;;6.30;99.90;;;;;;5067117;28;20045;-75
2022/03/07 09:20:28;;;;;;;3.92;0.90;;;6.40;99.90;;;;;;5068343;28;20047;-75
2022/03/07 09:22:54;;;;;;;8.73;0.85;;;6.40;99.90;;;;;;5067051;28;20036;-75
2022/03/07 09:25:20;;;;;;;2.28;0.60;;;6.60;99.90;;;;;;5067673;28;20076;-76
2022/03/07 09:27:46;;;;;;;3.92;0.95;;;6.60;99.90;;;;;;5065036;28;20044;-76
2022/03/07 09:30:13;;;;;;;1.23;0.40;;;7.10;99.90;;;;;;5067496;28;20044;-76
2022/03/07 09:32:40;;;;;;;4.38;0.70;;;6.90;99.90;;;;;;5049057;28;20094;-76
2022/03/07 09:35:06;;;;;;;6.70;1.08;;;7.00;99.90;;;;;;5067201;28;20099;-77
2022/03/07 09:37:33;;;;;;;3.90;0.80;;;7.00;99.90;;;;;;5050522;28;20040;-77
2022/03/07 09:39:59;;;;;;;2.53;0.80;;;7.10;99.90;;;;;;5064910;28;20052;-76
2022/03/07 09:42:26;;;;;;;4.72;1.08;;;7.30;99.90;;;;;;5049322;28;20063;-76
2022/03/07 09:44:52;;;;;;;3.95;0.70;;;7.40;99.90;;;;;;5048844;28;20132;-76
2022/03/07 09:47:21;;;;;;;1.60;0.55;;;7.70;99.90;;;;;;5049185;28;20040;-76
2022/03/07 09:49:47;;;;;;;4.80;0.65;;;7.80;99.90;;;;;;5048617;28;20657;-76
2022/03/07 09:52:12;;;;;;;3.83;0.80;;;7.90;99.90;;;;;;5065229;28;20104;-76
2022/03/07 09:54:38;;;;;;;7.97;0.85;;;8.00;99.90;;;;;;5065857;28;20064;-76
2022/03/07 09:57:04;;;;;;;7.18;0.73;;;8.20;99.90;;;;;;5064535;28;20045;-75
2022/03/07 09:59:32;;;;;;;6.85;0.82;;;8.30;99.90;;;;;;5067135;28;20059;-75
2022/03/07 10:02:00;;;;;;;2.05;0.50;;;8.60;99.90;;;;;;5065071;28;20389;-76
2022/03/07 10:04:27;;;;;;;4.93;0.75;;;9.30;99.90;;;;;;5066883;28;20037;-77
2022/03/07 10:06:53;;;;;;;4.45;0.80;;;8.50;99.90;;;;;;5064868;28;20044;-76
2022/03/07 10:09:21;;;;;;;3.15;0.65;;;8.50;99.90;;;;;;5066686;28;20465;-76
2022/03/07 10:11:52;;;;;;;3.03;0.38;;;8.50;99.90;;;;;;5067163;28;20571;-76
2022/03/07 10:14:28;;;;;;;3.65;0.50;;;8.50;99.90;;;;;;5064402;28;20052;-76
2022/03/07 10:16:54;;;;;;;3.78;0.70;;;8.60;99.90;;;;;;5065132;28;20051;-76
2022/03/07 10:19:20;;;;;;;2.85;0.55;;;8.70;99.90;;;;;;5065628;28;20044;-77
2022/03/07 10:21:48;;;;;;;2.22;0.55;;;9.00;99.90;;;;;;5065397;28;20045;-76
2022/03/07 10:24:14;;;;;;;2.33;0.40;;;9.10;99.90;;;;;;5066984;28;20040;-79
2022/03/07 10:26:40;;;;;;;5.20;0.70;;;9.20;99.90;;;;;;5064208;28;20052;-78
2022/03/07 10:29:06;;;;;;;4.65;1.10;;;9.40;99.90;;;;;;5066784;28;20045;-78
2022/03/07 10:31:32;;;;;;;4.15;1.00;;;9.60;99.90;;;;;;5064610;28;20494;-79
2022/03/07 10:34:07;;;;;;;4.82;0.77;;;9.20;99.90;;;;;;5048293;28;20044;-78
2022/03/07 10:36:39;;;;;;;6.28;0.90;;;9.10;99.90;;;;;;5064459;28;20500;-79
2022/03/07 10:39:10;;;;;;;2.10;0.68;;;8.90;99.90;;;;;;5065335;28;20068;-79
2022/03/07 10:41:42;;;;;;;3.17;0.50;;;8.70;99.90;;;;;;5066192;28;20072;-78
2022/03/07 10:44:22;;;;;;;9.77;0.88;;;8.70;99.90;;;;;;5064565;28;20087;-79
2022/03/07 10:46:47;;;;;;;3.67;0.70;;;8.80;99.90;;;;;;5066524;28;20197;-78
2022/03/07 10:49:16;;;;;;;2.08;0.63;;;9.10;99.90;;;;;;5065658;28;20523;-78
2022/03/07 10:51:53;;;;;;;3.47;0.70;;;9.30;99.90;;;;;;5066320;28;20445;-79
2022/03/07 10:54:21;;;;;;;3.65;1.08;;;9.50;99.90;;;;;;5065353;28;20097;-79
2022/03/07 10:56:54;;;;;;;3.20;1.10;;;9.70;99.90;;;;;;5063787;28;20144;-77
2022/03/07 10:59:31;;;;;;;4.57;1.00;;;9.70;99.90;;;;;;5047994;28;20048;-77
2022/03/07 11:02:04;;;;;;;2.70;0.60;;;9.80;99.90;;;;;;5048192;28;20048;-77
2022/03/07 11:04:31;;;;;;;4.93;0.82;;;10.00;99.90;;;;;;5066097;28;20552;-77
2022/03/07 11:06:56;;;;;;;6.30;0.80;;;10.40;99.90;;;;;;5065651;28;20041;-77
2022/03/07 11:09:22;;;;;;;4.28;0.80;;;10.00;99.90;;;;;;5063350;28;20059;-78
2022/03/07 11:11:53;;;;;;;4.22;0.75;;;9.80;99.90;;;;;;5065119;28;20044;-78
2022/03/07 11:14:19;;;;;;;2.63;0.77;;;9.70;99.90;;;;;;5047051;28;20439;-77
2022/03/07 11:16:49;;;;;;;4.65;0.63;;;9.70;99.90;;;;;;5064351;28;20071;-76
2022/03/07 11:19:18;;;;;;;2.63;0.85;;;9.70;99.90;;;;;;5063317;28;20037;-77
2022/03/07 11:21:45;;;;;;;2.72;0.50;;;9.90;99.90;;;;;;5065043;28;20093;-76
2022/03/07 11:24:11;;;;;;;5.72;0.73;;;9.90;99.90;;;;;;5064255;28;20480;-77
2022/03/07 11:26:41;;;;;;;1.65;0.70;;;9.90;99.90;;;;;;5046507;28;20551;-76
2022/03/07 11:29:08;;;;;;;2.95;0.63;;;9.90;99.90;;;;;;5032839;28;20141;-77
2022/03/07 11:31:35;;;;;;;5.80;0.85;;;9.90;99.90;;;;;;5030596;28;20059;-77
2022/03/07 11:34:07;;;;;;;1.67;0.60;;;10.00;97.70;;;;;;5063795;28;20048;-76
2022/03/07 11:36:35;;;;;;;2.15;0.75;;;10.00;95.90;;;;;;5063116;28;20404;-77
2022/03/07 11:39:02;;;;;;;0.68;0.45;;;11.10;96.60;;;;;;5046942;28;20190;-77
2022/03/07 11:41:31;;;;;;;1.40;0.50;;;10.10;92.10;;;;;;5047051;28;20052;-77
2022/03/07 11:44:02;;;;;;;2.38;0.50;;;10.20;93.10;;;;;;5062738;28;20476;-78
2022/03/07 11:46:33;;;;;;;1.48;0.50;;;10.40;91.30;;;;;;5065320;28;20045;-76
2022/03/07 11:49:01;;;;;;;5.53;0.60;;;10.50;90.50;;;;;;5063084;28;20072;-78
2022/03/07 11:51:29;;;;;;;3.45;0.50;;;10.60;90.60;;;;;;5047279;28;20048;-80
2022/03/07 11:53:57;;;;;;;3.47;0.50;;;10.70;86.10;;;;;;5063223;28;20040;-81
2022/03/07 11:56:32;;;;;;;1.85;0.60;;;10.60;85.40;;;;;;5062555;28;20113;-78
2022/03/07 11:59:00;;;;;;;4.05;0.77;;;10.40;83.60;;;;;;5064221;28;20119;-78
2022/03/07 12:01:30;;;;;;;1.77;0.60;;;10.20;86.90;;;;;;5064470;28;20052;-79
2022/03/07 12:04:10;;;;;;;5.55;0.60;;;10.00;86.70;;;;;;5063611;28;20086;-79
2022/03/07 12:06:45;;;;;;;1.55;0.50;;;10.00;84.20;;;;;;5046177;28;20479;-79
2022/03/07 12:09:21;;;;;;;0.80;0.50;;;10.10;85.10;;;;;;5063239;28;20186;-78
2022/03/07 12:11:58;;;;;;;3.05;0.63;;;10.20;84.00;;;;;;5047005;28;20052;-78
2022/03/07 12:14:32;;;;;;;4.30;0.50;;;10.20;79.80;;;;;;5064121;28;20044;-79
2022/03/07 12:17:01;;;;;;;0.60;0.35;;;10.10;80.00;;;;;;5065277;28;20075;-78
2022/03/07 12:19:28;;;;;;;1.23;0.40;;;10.00;82.00;;;;;;5062830;28;20041;-77
2022/03/07 12:21:54;;;;;;;3.03;0.70;;;10.20;81.50;;;;;;5046031;28;20052;-77
2022/03/07 12:24:22;;;;;;;2.03;0.32;;;11.10;81.60;;;;;;5065037;28;20062;-78
2022/03/07 12:26:53;;;;;;;1.80;0.43;;;10.90;80.20;;;;;;5045681;28;20041;-78
2022/03/07 12:29:25;;;;;;;2.22;0.55;;;11.20;78.10;;;;;;5063338;28;20059;-79
2022/03/07 12:32:01;;;;;;;3.03;0.70;;;11.40;74.80;;;;;;5045900;28;20829;-78
2022/03/07 12:34:29;;;;;;;2.22;0.30;;;11.20;71.80;;;;;;5063004;28;20040;-79
2022/03/07 12:37:02;;;;;;;3.30;0.60;;;11.00;72.80;;;;;;5064621;28;20528;-78
2022/03/07 12:39:31;;;;;;;2.90;0.40;;;11.00;73.20;;;;;;5062044;28;20045;-78
2022/03/07 12:42:02;;;;;;;4.28;0.63;;;11.00;71.60;;;;;;5063707;28;20056;-79
2022/03/07 12:44:29;;;;;;;2.33;0.60;;;11.00;69.40;;;;;;5063979;28;20055;-79
2022/03/07 12:46:54;;;;;;;2.78;0.63;;;11.00;69.50;;;;;;5063145;28;20090;-79
2022/03/07 12:49:20;;;;;;;3.97;0.50;;;11.10;70.80;;;;;;5062674;28;20056;-78